Terminal Aerodrome Forecast
Issued by NWS San Angelo, TX

Home | Current Version | Previous Version | Text Only | Print | Product List | Glossary On
Versions: 1 2 3 4 5 6 7 8 9 10 11 12 13 14 15
000
FTUS44 KSJT 232300
TAFSJT
TAF
KSJT 232333Z 2400/2424 19016G25KT P6SM SCT090
     FM240200 17014KT P6SM SCT100 BKN250
     FM241100 23011KT P6SM SCT025
     FM241500 35013G21KT P6SM SKC=

USA.gov is the U.S. government's official web portal to all federal, state and local government web resources and services.